Los Angeles, California
Traffic Map
Current Weather Conditions
Los Angeles, California
Scattered Clouds
Scattered Clouds
58°
Feels Like: 58°
Wind Chill: 58° Ceiling: Unl
Heat Index: 58° Visibility: 10mi
Dew Point: 51° Wind: 3mph
Humidity: 78% Direction: ° ()
Pressure: 29.97in Gusts: 0mph
Raw Report DataKCQT 290956Z AUTO VRB03KT 10SM SCT022 14/11 A2997 RMK AO2 T01440106
Traffic Incident Summary
Active as of:
Severity:
Category:
InformationThere was an issue retrieving the traffic information for this location. Please try a different location or try again shortly.
Advertisements
Track Severe Weather on mobile